Main page
METAR-TAF:

METAR-TAF

Airports :

Aswan International Airport

Aswan, Egypt

latitude: 23-58N, longitude: 032-47E, elevation: 200 m

Current weather observation

The report was made 1 hour and 1 minutes ago, at 07:00 UTC
Wind 13 kt from the Northwest
Temperature 35°C
Humidity 16%
Pressure 1007 hPa
Visibility 10 km or more
no clouds below 1500 m and no cumulonimbus

METAR: HESN 300700Z 32013KT CAVOK 35/05 Q1007 NOSIG

Time: 10:01 (08:01 UTC)

Forecast

The report was made 3 hours and 1 minutes ago, at 05:00 UTC
Forecast valid from 30 at 06 UTC to 31 at 12 UTC
Wind 10 kt from the North/Northwest
Visibility 10 km or more
no clouds below 1500 m and no cumulonimbus

TAF: HESN 300500Z 3006/3112 34010KT CAVOK

Weather observations and forecasts of more than 4000 airports (METAR and TAF reports).

The available stations are represented by yellow and red dots on the map.

Hover mouse over dot to see the name of the station.

Then click to see weather observations and forecasts.

To change the map : click on the green buttons with a black cross to zoom in, on the green button with a dash to zoom out, or on the green arrows for adjacent maps.


METAR-TAF: